createdAt,value
2023-05-23T00:00:11.761Z,6.97
2023-05-23T00:04:13.196Z,7.10
2023-05-23T00:08:14.712Z,6.93
2023-05-23T00:12:17.579Z,7.47
2023-05-23T00:16:19.089Z,7.60
2023-05-23T00:20:20.552Z,7.97
2023-05-23T00:24:22.231Z,8.63
2023-05-23T00:28:25.025Z,8.40
2023-05-23T00:32:26.457Z,8.90
2023-05-23T00:36:27.865Z,8.77
2023-05-23T00:40:29.606Z,9.60
2023-05-23T00:44:32.475Z,9.10
2023-05-23T00:48:34.040Z,8.97
2023-05-23T00:52:36.388Z,9.63
2023-05-23T00:56:38.577Z,9.10
2023-05-23T01:00:42.770Z,9.30
2023-05-23T01:04:44.503Z,9.47
2023-05-23T01:08:45.919Z,9.80
2023-05-23T01:12:56.063Z,9.70
2023-05-23T01:17:04.682Z,9.17
2023-05-23T01:21:09.495Z,9.27
2023-05-23T01:25:23.369Z,10.60
2023-05-23T01:29:29.542Z,9.97
2023-05-23T01:33:32.474Z,9.67
2023-05-23T01:37:33.923Z,10.13
2023-05-23T01:41:35.543Z,10.40
2023-05-23T01:45:39.458Z,9.93
2023-05-23T01:49:41.972Z,9.93
2023-05-23T01:53:43.916Z,8.47
2023-05-23T01:57:47.614Z,6.23
2023-05-23T02:01:50.456Z,4.60
2023-05-23T02:05:51.867Z,4.10
2023-05-23T02:09:53.425Z,4.00
2023-05-23T02:13:54.866Z,3.50
2023-05-23T02:17:57.710Z,3.83
2023-05-23T02:21:59.192Z,3.53
2023-05-23T02:26:00.605Z,3.80
2023-05-23T02:30:02.038Z,3.37
2023-05-23T02:34:04.785Z,3.10
2023-05-23T02:38:06.219Z,3.40
2023-05-23T02:42:07.772Z,3.67
2023-05-23T02:46:09.468Z,3.13
2023-05-23T02:50:12.676Z,3.97
2023-05-23T02:54:14.461Z,4.23
2023-05-23T02:58:15.911Z,4.67
2023-05-23T03:02:17.363Z,5.33
2023-05-23T03:06:20.177Z,5.17
2023-05-23T03:10:21.586Z,5.53
2023-05-23T03:14:23.008Z,5.90
2023-05-23T03:18:24.467Z,6.17
2023-05-23T03:22:27.206Z,5.77
2023-05-23T03:26:28.675Z,6.27
2023-05-23T03:30:30.056Z,5.50
2023-05-23T03:34:31.441Z,5.90
2023-05-23T03:38:34.352Z,6.63
2023-05-23T03:42:36.687Z,6.07
2023-05-23T03:46:39.750Z,6.03
2023-05-23T03:50:41.777Z,6.57
2023-05-23T03:54:44.486Z,6.70
2023-05-23T03:58:45.879Z,6.00
2023-05-23T04:02:47.450Z,6.10
2023-05-23T04:06:48.932Z,6.73
2023-05-23T04:10:51.920Z,6.80
2023-05-23T04:14:53.324Z,7.30
2023-05-23T04:18:54.843Z,6.47
2023-05-23T04:22:56.312Z,6.20
2023-05-23T04:26:59.068Z,6.10
2023-05-23T04:31:00.567Z,6.00
2023-05-23T04:35:02.059Z,5.77
2023-05-23T04:39:04.062Z,6.00
2023-05-23T04:43:07.081Z,6.33
2023-05-23T04:47:08.816Z,6.30
2023-05-23T04:51:10.261Z,5.90
2023-05-23T04:55:11.803Z,5.97
2023-05-23T04:59:14.657Z,5.63
2023-05-23T05:03:16.062Z,6.00
2023-05-23T05:07:19.013Z,5.80
2023-05-23T05:11:20.436Z,5.60
2023-05-23T05:15:23.230Z,5.70
2023-05-23T05:19:24.740Z,5.47
2023-05-23T05:23:27.013Z,5.97
2023-05-23T05:27:28.413Z,5.77
2023-05-23T05:31:31.255Z,6.10
2023-05-23T05:35:33.537Z,6.53
2023-05-23T05:39:35.222Z,6.20
2023-05-23T05:43:36.726Z,6.40
2023-05-23T05:47:39.568Z,6.70
2023-05-23T05:51:41.076Z,6.50
2023-05-23T05:55:42.524Z,6.70
2023-05-23T05:59:43.985Z,6.30
2023-05-23T06:03:46.904Z,6.73
2023-05-23T06:07:49.275Z,7.40
2023-05-23T06:11:50.796Z,6.87
2023-05-23T06:15:52.300Z,7.27
2023-05-23T06:19:55.096Z,6.90
2023-05-23T06:23:56.724Z,7.30
2023-05-23T06:27:58.374Z,7.33
2023-05-23T06:31:59.908Z,6.67
2023-05-23T06:36:02.786Z,7.03
2023-05-23T06:40:05.182Z,6.60
2023-05-23T06:44:06.874Z,6.80
2023-05-23T06:48:08.313Z,6.63
2023-05-23T06:52:11.131Z,6.83
2023-05-23T06:56:12.563Z,6.70
2023-05-23T07:00:14.775Z,6.53
2023-05-23T07:04:16.235Z,6.53
2023-05-23T07:08:19.044Z,6.13
2023-05-23T07:12:20.531Z,6.00
2023-05-23T07:16:21.989Z,5.40
2023-05-23T07:20:23.462Z,5.50
2023-05-23T07:24:26.233Z,5.73
2023-05-23T07:28:27.751Z,5.50
2023-05-23T07:32:29.219Z,5.13
2023-05-23T07:36:34.077Z,5.00
2023-05-23T07:40:37.439Z,4.60
2023-05-23T07:44:38.891Z,4.90
2023-05-23T07:48:40.359Z,4.80
2023-05-23T07:52:41.824Z,4.97
2023-05-23T07:56:44.599Z,5.17
2023-05-23T08:00:46.086Z,5.30
2023-05-23T08:04:49.045Z,5.23
2023-05-23T08:08:50.894Z,5.07
2023-05-23T08:12:53.669Z,5.47
2023-05-23T08:16:55.207Z,5.63
2023-05-23T08:20:56.714Z,5.87
2023-05-23T08:24:58.144Z,6.50
2023-05-23T08:29:00.949Z,6.40
2023-05-23T08:33:02.648Z,7.83
2023-05-23T08:37:04.551Z,7.80
2023-05-23T08:41:19.898Z,7.63
2023-05-23T08:45:23.048Z,7.63
2023-05-23T08:49:25.292Z,8.07
2023-05-23T08:53:27.209Z,7.97
2023-05-23T08:57:28.673Z,9.13
2023-05-23T09:01:32.551Z,9.30
2023-05-23T09:05:34.136Z,9.70
2023-05-23T09:09:35.680Z,11.27
2023-05-23T09:13:37.114Z,8.30
2023-05-23T09:17:40.434Z,6.87
2023-05-23T09:21:43.524Z,7.37
2023-05-23T09:25:47.036Z,8.63
2023-05-23T09:29:49.083Z,9.63
2023-05-23T09:33:52.881Z,9.23
2023-05-23T09:37:54.340Z,10.43
2023-05-23T09:41:55.782Z,14.10
2023-05-23T09:46:01.040Z,11.20
2023-05-23T09:50:04.962Z,9.70
2023-05-23T09:54:06.493Z,9.50
2023-05-23T09:58:08.857Z,8.70
2023-05-23T10:02:12.452Z,8.13
2023-05-23T10:06:20.756Z,6.80
2023-05-23T10:10:22.834Z,7.00
2023-05-23T10:14:26.219Z,6.53
2023-05-23T10:18:30.711Z,5.57
2023-05-23T10:22:33.906Z,5.80
2023-05-23T10:26:36.404Z,5.23
2023-05-23T10:30:38.345Z,5.20
2023-05-23T10:34:45.669Z,4.43
2023-05-23T10:38:54.271Z,4.23
2023-05-23T10:43:01.660Z,5.53
2023-05-23T10:47:04.024Z,5.33
2023-05-23T10:51:06.937Z,4.50
2023-05-23T10:55:14.910Z,4.17
2023-05-23T10:59:20.764Z,4.13
2023-05-23T11:03:50.611Z,4.13
2023-05-23T11:08:10.792Z,3.90
2023-05-23T11:12:13.656Z,4.30
2023-05-23T11:16:24.657Z,3.90
2023-05-23T11:20:26.937Z,4.03
2023-05-23T11:24:48.829Z,3.60
2023-05-23T11:28:58.295Z,3.70
2023-05-23T11:32:59.840Z,3.47
2023-05-23T11:37:01.365Z,4.17
2023-05-23T11:41:03.019Z,3.60
2023-05-23T11:45:09.194Z,3.37
2023-05-23T11:49:11.549Z,3.40
2023-05-23T11:53:13.334Z,3.77
2023-05-23T11:57:14.810Z,4.07
2023-05-23T12:01:17.688Z,4.07
2023-05-23T12:05:19.196Z,4.27
2023-05-23T12:09:20.981Z,4.27
2023-05-23T12:13:24.771Z,4.30
2023-05-23T12:17:27.705Z,4.10
2023-05-23T12:21:41.478Z,4.03
2023-05-23T12:25:44.445Z,4.30
2023-05-23T12:29:51.000Z,4.07
2023-05-23T12:33:53.841Z,4.10
2023-05-23T12:37:56.546Z,3.73
2023-05-23T12:42:07.619Z,3.80
2023-05-23T12:46:09.324Z,2.97
2023-05-23T12:50:12.566Z,3.10
2023-05-23T12:54:13.979Z,3.30
2023-05-23T12:58:16.435Z,2.73
2023-05-23T13:02:17.964Z,2.90
2023-05-23T13:06:20.749Z,2.60
2023-05-23T13:10:22.207Z,2.60
2023-05-23T13:14:24.205Z,2.43
2023-05-23T13:18:26.041Z,2.80
2023-05-23T13:22:28.944Z,3.17
2023-05-23T13:26:30.372Z,2.63
2023-05-23T13:30:32.236Z,2.70
2023-05-23T13:34:33.769Z,3.10
2023-05-23T13:38:37.547Z,2.90
2023-05-23T13:42:39.408Z,3.10
2023-05-23T13:46:40.872Z,2.87
2023-05-23T13:50:43.474Z,2.80
2023-05-23T13:54:46.558Z,2.90
2023-05-23T13:58:48.040Z,3.20
2023-05-23T14:02:49.626Z,3.13
2023-05-23T14:06:51.156Z,2.90
2023-05-23T14:10:54.012Z,3.33
2023-05-23T14:14:55.656Z,2.90
2023-05-23T14:18:57.298Z,2.53
2023-05-23T14:22:58.764Z,3.43
2023-05-23T14:27:01.508Z,3.40
2023-05-23T14:31:03.326Z,2.90
2023-05-23T14:35:05.894Z,2.57
2023-05-23T14:39:08.461Z,3.17
2023-05-23T14:43:13.190Z,2.80
2023-05-23T14:47:14.820Z,3.33
2023-05-23T14:51:27.462Z,3.00
2023-05-23T14:55:36.441Z,3.47
2023-05-23T14:59:39.303Z,3.47
2023-05-23T15:03:40.940Z,2.93
2023-05-23T15:07:42.471Z,3.67
2023-05-23T15:11:44.443Z,2.97
2023-05-23T15:15:47.535Z,3.03
2023-05-23T15:19:48.997Z,2.90
2023-05-23T15:23:51.506Z,3.50
2023-05-23T15:27:53.022Z,2.80
2023-05-23T15:31:55.902Z,2.87
2023-05-23T15:35:57.368Z,2.87
2023-05-23T15:39:58.839Z,2.70
2023-05-23T15:44:00.324Z,3.17
2023-05-23T15:48:03.562Z,2.70
2023-05-23T15:52:05.421Z,2.60
2023-05-23T15:56:06.923Z,2.90
2023-05-23T16:00:09.832Z,3.10
2023-05-23T16:04:13.022Z,3.17
2023-05-23T16:08:14.551Z,2.83
2023-05-23T16:12:16.184Z,2.73
2023-05-23T16:16:17.653Z,2.77
2023-05-23T16:20:20.775Z,2.83
2023-05-23T16:24:22.226Z,2.70
2023-05-23T16:28:23.730Z,3.40
2023-05-23T16:32:25.164Z,3.00
2023-05-23T16:36:27.993Z,2.87
2023-05-23T16:40:29.431Z,2.87
2023-05-23T16:44:30.890Z,3.10
2023-05-23T16:48:32.360Z,2.90
2023-05-23T16:52:35.148Z,2.87
2023-05-23T16:56:36.665Z,2.77
2023-05-23T17:00:38.264Z,2.50
2023-05-23T17:04:40.027Z,2.93
2023-05-23T17:08:42.847Z,3.20
2023-05-23T17:12:44.306Z,2.70
2023-05-23T17:16:45.747Z,3.40
2023-05-23T17:20:47.169Z,3.87
2023-05-23T17:24:49.935Z,3.30
2023-05-23T17:28:51.445Z,3.73
2023-05-23T17:32:52.923Z,2.77
2023-05-23T17:36:54.374Z,2.60
2023-05-23T17:40:57.381Z,3.00
2023-05-23T17:44:58.781Z,2.77
2023-05-23T17:49:00.202Z,2.80
2023-05-23T17:53:04.069Z,2.73
2023-05-23T17:57:07.360Z,2.40
2023-05-23T18:01:08.903Z,2.70
2023-05-23T18:05:10.397Z,2.30
2023-05-23T18:09:11.835Z,2.80
2023-05-23T18:13:15.263Z,2.30
2023-05-23T18:17:16.778Z,2.53
2023-05-23T18:21:18.437Z,2.43
2023-05-23T18:25:19.997Z,2.87
2023-05-23T18:29:22.769Z,2.50
2023-05-23T18:33:24.375Z,2.63
2023-05-23T18:37:26.171Z,2.93
2023-05-23T18:41:27.682Z,2.30
2023-05-23T18:45:30.456Z,2.97
2023-05-23T18:49:31.941Z,2.80
2023-05-23T18:53:33.462Z,3.00
2023-05-23T18:57:34.938Z,3.00
2023-05-23T19:01:37.766Z,3.10
2023-05-23T19:05:39.227Z,2.60
2023-05-23T19:09:41.471Z,2.63
2023-05-23T19:13:42.876Z,2.93
2023-05-23T19:17:45.753Z,2.47
2023-05-23T19:21:47.213Z,2.50
2023-05-23T19:25:48.844Z,2.70
2023-05-23T19:29:50.313Z,2.60
2023-05-23T19:33:53.172Z,3.13
2023-05-23T19:37:54.597Z,2.47
2023-05-23T19:41:56.221Z,2.63
2023-05-23T19:45:57.711Z,2.67
2023-05-23T19:50:00.568Z,2.80
2023-05-23T19:54:02.117Z,2.40
2023-05-23T19:58:03.650Z,2.70
2023-05-23T20:02:05.217Z,2.97
2023-05-23T20:06:08.234Z,2.70
2023-05-23T20:10:10.159Z,2.43
2023-05-23T20:14:11.883Z,2.63
2023-05-23T20:18:13.367Z,2.70
2023-05-23T20:22:16.208Z,2.30
2023-05-23T20:26:17.718Z,3.00
2023-05-23T20:30:19.360Z,2.40
2023-05-23T20:34:20.859Z,2.63
2023-05-23T20:38:23.652Z,2.70
2023-05-23T20:42:25.092Z,2.53
2023-05-23T20:46:26.888Z,2.77
2023-05-23T20:50:28.408Z,2.10
2023-05-23T20:54:31.357Z,2.70
2023-05-23T20:58:32.797Z,2.53
2023-05-23T21:02:34.410Z,2.37
2023-05-23T21:06:36.214Z,2.67
2023-05-23T21:10:39.211Z,2.60
2023-05-23T21:14:40.745Z,2.57
2023-05-23T21:18:42.345Z,2.43
2023-05-23T21:22:43.996Z,2.60
2023-05-23T21:26:46.782Z,2.20
2023-05-23T21:30:48.495Z,3.00
2023-05-23T21:34:49.994Z,2.47
2023-05-23T21:38:51.552Z,2.67
2023-05-23T21:42:54.397Z,2.30
2023-05-23T21:46:55.883Z,2.50
2023-05-23T21:50:57.468Z,2.67
2023-05-23T21:54:58.871Z,2.87
2023-05-23T21:59:01.785Z,2.30
2023-05-23T22:03:03.387Z,2.90
2023-05-23T22:07:05.373Z,2.73
2023-05-23T22:11:06.884Z,2.83
2023-05-23T22:15:10.904Z,2.53
2023-05-23T22:19:12.656Z,2.37
2023-05-23T22:23:14.400Z,2.60
2023-05-23T22:27:15.817Z,2.50
2023-05-23T22:31:18.785Z,2.57
2023-05-23T22:35:20.524Z,2.67
2023-05-23T22:39:21.943Z,2.70
2023-05-23T22:43:23.407Z,3.13
2023-05-23T22:47:26.325Z,2.67
2023-05-23T22:51:27.819Z,2.63
2023-05-23T22:55:29.355Z,2.73
2023-05-23T22:59:30.807Z,3.00
2023-05-23T23:03:33.845Z,2.30
2023-05-23T23:07:35.350Z,2.50
2023-05-23T23:11:36.839Z,2.50
2023-05-23T23:15:38.346Z,2.87
2023-05-23T23:19:41.132Z,2.50
2023-05-23T23:23:42.589Z,2.83
2023-05-23T23:27:44.557Z,2.80
2023-05-23T23:31:46.052Z,2.60
2023-05-23T23:35:49.212Z,2.43
2023-05-23T23:39:50.774Z,2.57
2023-05-23T23:43:52.327Z,2.73
2023-05-23T23:47:54.200Z,2.60
2023-05-23T23:51:57.089Z,2.40
2023-05-23T23:55:58.698Z,2.73
